Time;durP1;ratioP1;P1;durP2;ratioP2;P2;SDS_P1;SDS_P2;PMS_P1;PMS_P2;Temp;Humidity;BMP_temperature;BMP_pressure;BME280_temperature;BME280_humidity;BME280_pressure;Samples;Min_cycle;Max_cycle;Signal;HPM_P1;HPM_P2
2023/03/16 00:00:12;;;;;;;28.48;14.00;;;;;;;-0.15;63.39;98736.66;4970139;28;20035;-75
2023/03/16 00:02:42;;;;;;;27.15;13.00;;;;;;;-0.13;63.40;98737.25;4970663;28;20063;-74
2023/03/16 00:05:09;;;;;;;29.85;13.63;;;;;;;-0.13;63.98;98729.16;4971275;28;20548;-73
2023/03/16 00:07:35;;;;;;;26.83;13.02;;;;;;;-0.10;63.75;98736.81;4971248;28;20038;-73
2023/03/16 00:10:01;;;;;;;26.88;12.02;;;;;;;-0.10;63.93;98738.72;4970264;28;20038;-72
2023/03/16 00:12:26;;;;;;;27.30;13.13;;;;;;;-0.10;63.54;98734.13;4970802;28;20101;-72
2023/03/16 00:14:53;;;;;;;29.77;13.80;;;;;;;-0.10;63.57;98749.50;4968965;28;20086;-71
2023/03/16 00:17:19;;;;;;;31.90;15.57;;;;;;;-0.12;63.66;98741.59;4970337;28;20086;-72
2023/03/16 00:19:47;;;;;;;32.15;14.65;;;;;;;-0.11;63.97;98748.66;4970840;28;20240;-73
2023/03/16 00:22:14;;;;;;;30.17;13.27;;;;;;;-0.10;63.62;98747.59;4970027;28;20105;-71
2023/03/16 00:24:43;;;;;;;29.08;14.20;;;;;;;-0.09;63.72;98751.94;4971014;28;20027;-73
2023/03/16 00:27:13;;;;;;;27.30;12.75;;;;;;;-0.12;63.69;98757.78;4970175;28;20058;-70
2023/03/16 00:29:45;;;;;;;29.23;12.00;;;;;;;-0.11;63.50;98751.34;4970028;28;20483;-75
2023/03/16 00:32:13;;;;;;;27.80;13.38;;;;;;;-0.12;63.94;98757.78;4971453;28;20022;-73
2023/03/16 00:34:38;;;;;;;22.42;11.43;;;;;;;-0.14;63.92;98753.66;4969879;28;20026;-72
2023/03/16 00:37:03;;;;;;;25.15;11.85;;;;;;;-0.15;63.44;98760.91;4970847;28;20062;-69
2023/03/16 00:39:29;;;;;;;25.52;11.07;;;;;;;-0.16;63.83;98761.97;4968696;28;20027;-72
2023/03/16 00:41:57;;;;;;;25.25;11.55;;;;;;;-0.21;63.49;98764.50;4970757;28;20034;-70
2023/03/16 00:44:22;;;;;;;24.65;11.13;;;;;;;-0.25;63.57;98758.72;4972938;28;20023;-73
2023/03/16 00:46:48;;;;;;;24.13;11.75;;;;;;;-0.29;64.04;98768.28;4978122;28;20121;-72
2023/03/16 00:49:13;;;;;;;25.77;12.50;;;;;;;-0.31;63.75;98765.81;4969828;28;20034;-70
2023/03/16 00:51:38;;;;;;;30.10;13.07;;;;;;;-0.33;63.75;98764.34;4978129;28;20487;-73
2023/03/16 00:54:04;;;;;;;25.15;12.55;;;;;;;-0.34;63.77;98765.41;4970848;28;20098;-76
2023/03/16 00:56:30;;;;;;;26.63;13.07;;;;;;;-0.36;63.93;98762.94;4970482;28;20027;-74
2023/03/16 00:58:56;;;;;;;24.30;12.55;;;;;;;-0.38;64.19;98765.03;4970543;28;20106;-73
2023/03/16 01:01:22;;;;;;;26.77;12.20;;;;;;;-0.40;64.08;98761.72;4968538;28;20118;-73
2023/03/16 01:03:47;;;;;;;25.95;13.75;;;;;;;-0.42;64.14;98760.28;4969405;28;20070;-70
2023/03/16 01:06:16;;;;;;;24.70;12.95;;;;;;;-0.42;63.94;98758.41;4968635;28;20118;-70
2023/03/16 01:08:42;;;;;;;32.65;14.52;;;;;;;-0.43;64.12;98761.34;4969594;28;20110;-70
2023/03/16 01:11:16;;;;;;;46.75;19.85;;;;;;;-0.48;64.35;98765.50;4967525;28;20027;-69
2023/03/16 01:13:42;;;;;;;38.60;15.27;;;;;;;-0.50;64.53;98766.75;4971256;28;20038;-70
2023/03/16 01:16:09;;;;;;;30.50;13.80;;;;;;;-0.52;64.49;98779.59;4969524;28;20035;-70
2023/03/16 01:18:34;;;;;;;31.27;13.20;;;;;;;-0.54;65.10;98773.59;4968642;28;20042;-70
2023/03/16 01:21:02;;;;;;;33.78;13.43;;;;;;;-0.60;64.97;98778.00;4968818;28;20031;-70
2023/03/16 01:23:31;;;;;;;37.50;14.75;;;;;;;-0.62;64.85;98777.38;4969704;28;20022;-70
2023/03/16 01:25:58;;;;;;;41.70;14.87;;;;;;;-0.63;65.36;98787.34;4969351;28;20614;-70
2023/03/16 01:28:25;;;;;;;34.53;14.27;;;;;;;-0.66;65.14;98785.09;4969577;28;20039;-70
2023/03/16 01:30:57;;;;;;;29.20;13.13;;;;;;;-0.69;65.13;98785.50;4969329;28;20031;-70
2023/03/16 01:33:25;;;;;;;25.05;13.02;;;;;;;-0.71;65.34;98779.50;4969962;28;20023;-70
2023/03/16 01:36:00;;;;;;;24.85;13.15;;;;;;;-0.71;64.96;98774.13;4969373;28;20027;-70
2023/03/16 01:38:26;;;;;;;24.92;12.23;;;;;;;-0.71;65.61;98782.19;4969595;28;20403;-70
2023/03/16 01:40:53;;;;;;;22.40;11.63;;;;;;;-0.69;65.88;98779.28;4984952;28;20030;-70
2023/03/16 01:43:21;;;;;;;24.27;11.73;;;;;;;-0.73;65.26;98775.34;4969524;28;20030;-70
2023/03/16 01:46:05;;;;;;;23.50;12.27;;;;;;;-0.75;65.32;98771.00;4965582;28;20038;-70
2023/03/16 01:48:42;;;;;;;24.23;12.38;;;;;;;-0.76;65.86;98773.94;4966750;28;20477;-69
2023/03/16 01:51:23;;;;;;;23.50;11.80;;;;;;;-0.77;65.50;98774.97;4972824;28;20041;-69
2023/03/16 01:53:52;;;;;;;28.30;12.57;;;;;;;-0.79;65.87;98775.19;4970125;28;20113;-69
2023/03/16 01:56:22;;;;;;;27.80;12.63;;;;;;;-0.82;65.79;98780.19;4971303;28;20033;-69
2023/03/16 01:58:50;;;;;;;24.52;12.88;;;;;;;-0.84;65.97;98780.41;4969133;28;20058;-69
2023/03/16 02:01:30;;;;;;;25.60;12.82;;;;;;;-0.88;65.66;98781.88;4968513;28;20546;-70
2023/03/16 02:04:06;;;;;;;24.75;12.27;;;;;;;-0.88;66.18;98783.72;4973255;28;20627;-70
2023/03/16 02:06:32;;;;;;;28.38;13.20;;;;;;;-0.92;66.06;98781.44;4966320;28;20109;-70
2023/03/16 02:08:59;;;;;;;28.92;13.32;;;;;;;-0.95;66.21;98786.44;4968866;28;20553;-70
2023/03/16 02:11:25;;;;;;;27.85;14.13;;;;;;;-0.98;66.35;98781.47;4968429;28;20069;-70
2023/03/16 02:13:51;;;;;;;35.03;15.00;;;;;;;-1.01;66.79;98790.78;4968399;28;20034;-70
2023/03/16 02:16:18;;;;;;;26.23;13.77;;;;;;;-1.01;66.87;98784.59;4968038;28;20031;-70
2023/03/16 02:18:48;;;;;;;25.73;12.55;;;;;;;-1.02;67.51;98793.72;4968818;28;20467;-69
2023/03/16 02:21:16;;;;;;;29.90;13.48;;;;;;;-1.03;66.98;98800.13;4968349;28;20090;-70
2023/03/16 02:23:43;;;;;;;30.90;14.40;;;;;;;-1.03;66.91;98802.84;4970174;28;20026;-73
2023/03/16 02:26:14;;;;;;;27.15;13.18;;;;;;;-1.01;67.03;98806.13;4968309;28;20518;-72
2023/03/16 02:29:02;;;;;;;24.13;11.48;;;;;;;-1.02;67.20;98815.25;4967727;28;20038;-70
2023/03/16 02:31:28;;;;;;;29.65;13.48;;;;;;;-1.01;67.12;98817.72;4965847;28;20042;-70
2023/03/16 02:33:55;;;;;;;29.75;13.68;;;;;;;-1.01;67.14;98823.09;4968959;28;20026;-70
2023/03/16 02:36:21;;;;;;;28.25;13.27;;;;;;;-0.99;67.67;98825.59;4970190;28;20031;-70
2023/03/16 02:38:46;;;;;;;27.45;12.60;;;;;;;-0.98;67.35;98832.63;4969291;28;20077;-70
2023/03/16 02:41:17;;;;;;;27.40;13.45;;;;;;;-0.99;67.08;98839.88;4968821;28;20019;-72
2023/03/16 02:44:02;;;;;;;32.30;14.60;;;;;;;-0.98;66.94;98840.72;4969154;28;20097;-71
2023/03/16 02:46:28;;;;;;;30.70;14.27;;;;;;;-0.97;67.01;98840.50;4971502;28;20034;-69
2023/03/16 02:49:05;;;;;;;28.75;13.75;;;;;;;-0.98;67.09;98852.31;4971789;28;20050;-70
2023/03/16 02:51:31;;;;;;;29.15;14.18;;;;;;;-0.99;67.25;98844.44;4974714;28;20023;-70
2023/03/16 02:53:56;;;;;;;27.10;13.93;;;;;;;-0.99;66.86;98841.75;4972778;28;20034;-70
2023/03/16 02:56:22;;;;;;;27.70;14.02;;;;;;;-1.00;67.05;98850.88;4972400;28;20034;-70
2023/03/16 02:58:47;;;;;;;29.52;15.23;;;;;;;-1.02;67.01;98847.56;4974691;28;20033;-71
2023/03/16 03:01:14;;;;;;;32.08;14.80;;;;;;;-1.02;67.31;98858.34;4972135;28;20097;-70
2023/03/16 03:03:39;;;;;;;27.25;12.93;;;;;;;-1.02;67.37;98852.94;4972560;28;20030;-71
2023/03/16 03:06:05;;;;;;;27.48;13.13;;;;;;;-1.02;66.93;98863.72;4972184;28;20512;-70
2023/03/16 03:08:31;;;;;;;25.63;12.23;;;;;;;-1.04;66.83;98861.25;4972260;28;20030;-70
2023/03/16 03:10:57;;;;;;;25.58;13.32;;;;;;;-1.05;67.28;98865.78;4971750;28;20030;-71
2023/03/16 03:13:23;;;;;;;24.23;12.57;;;;;;;-1.07;67.32;98867.88;4971597;28;20050;-70
2023/03/16 03:15:48;;;;;;;26.45;13.18;;;;;;;-1.10;66.63;98873.66;4968926;28;20037;-71
2023/03/16 03:18:14;;;;;;;31.52;13.40;;;;;;;-1.08;67.07;98881.56;4971005;28;20030;-70
2023/03/16 03:20:39;;;;;;;25.05;13.45;;;;;;;-1.13;67.02;98875.97;4975719;28;20023;-70
2023/03/16 03:23:05;;;;;;;24.73;13.73;;;;;;;-1.15;67.10;98878.84;4970127;28;20755;-70
2023/03/16 03:25:33;;;;;;;29.60;14.55;;;;;;;-1.16;67.08;98879.06;4969771;28;20046;-70
2023/03/16 03:28:00;;;;;;;31.02;14.50;;;;;;;-1.18;66.98;98881.94;4970239;28;20034;-70
2023/03/16 03:30:26;;;;;;;30.08;14.80;;;;;;;-1.20;66.91;98886.72;4970163;28;20520;-70
2023/03/16 03:32:52;;;;;;;32.88;14.77;;;;;;;-1.24;66.95;98886.31;4970194;28;20023;-70
2023/03/16 03:35:18;;;;;;;30.27;14.88;;;;;;;-1.26;67.12;98883.00;4970557;28;20031;-70
2023/03/16 03:37:43;;;;;;;29.30;14.10;;;;;;;-1.26;67.22;98885.69;4973962;28;20395;-70
2023/03/16 03:40:11;;;;;;;32.47;13.52;;;;;;;-1.27;66.81;98883.22;4969983;28;20039;-70
2023/03/16 03:42:37;;;;;;;25.80;13.48;;;;;;;-1.28;66.94;98884.25;4969984;28;20033;-69
2023/03/16 03:45:03;;;;;;;27.50;12.70;;;;;;;-1.30;67.02;98887.16;4969880;28;20027;-70
2023/03/16 03:47:29;;;;;;;30.05;13.48;;;;;;;-1.33;67.14;98886.75;4962878;28;20065;-69
2023/03/16 03:49:55;;;;;;;25.08;12.95;;;;;;;-1.37;67.06;98889.00;4970163;28;20476;-70
2023/03/16 03:52:20;;;;;;;24.77;13.63;;;;;;;-1.38;66.73;98892.75;4969814;28;20023;-69
2023/03/16 03:54:45;;;;;;;30.10;14.68;;;;;;;-1.40;66.75;98898.34;4970072;28;20123;-70
2023/03/16 03:57:11;;;;;;;28.23;15.38;;;;;;;-1.43;66.78;98897.94;4970895;28;20408;-70
2023/03/16 03:59:42;;;;;;;45.90;21.05;;;;;;;-1.45;66.81;98898.13;4969767;28;20023;-70
2023/03/16 04:02:12;;;;;;;48.55;24.17;;;;;;;-1.47;66.78;98905.56;4972017;28;20026;-71
2023/03/16 04:04:38;;;;;;;;;;;;;;;-1.46;66.89;98907.22;4970787;28;20077;-70
2023/03/16 04:07:04;;;;;;;71.20;34.17;;;;;;;-1.48;66.86;98912.00;4969577;28;19921;-70
2023/03/16 04:09:33;;;;;;;64.63;32.20;;;;;;;-1.51;66.65;98912.41;4969600;28;20027;-69
2023/03/16 04:12:05;;;;;;;44.90;22.60;;;;;;;-1.55;66.67;98908.47;4969956;28;20039;-70
2023/03/16 04:14:30;;;;;;;42.90;22.73;;;;;;;-1.58;66.48;98916.94;4969370;28;20031;-69
2023/03/16 04:16:56;;;;;;;46.45;22.27;;;;;;;-1.61;66.91;98912.81;4969904;28;20042;-70
2023/03/16 04:19:23;;;;;;;41.03;21.20;;;;;;;-1.63;66.63;98912.19;4969350;28;20499;-70
2023/03/16 04:21:49;;;;;;;40.33;21.77;;;;;;;-1.64;66.67;98918.59;4969823;28;20018;-70
2023/03/16 04:24:15;;;;;;;37.83;20.30;;;;;;;-1.67;66.49;98910.94;4971006;28;20392;-69
2023/03/16 04:26:43;;;;;;;35.58;17.15;;;;;;;-1.70;66.42;98914.03;4969363;28;20039;-70
2023/03/16 04:29:10;;;;;;;31.33;16.20;;;;;;;-1.71;66.87;98917.75;4969215;28;20088;-69
2023/03/16 04:31:35;;;;;;;29.52;16.27;;;;;;;-1.72;66.35;98916.94;4984313;28;20058;-69
2023/03/16 04:34:01;;;;;;;30.67;14.63;;;;;;;-1.73;66.41;98931.44;4969708;28;20458;-70
2023/03/16 04:36:27;;;;;;;27.35;14.73;;;;;;;-1.76;66.59;98918.38;4951438;28;20093;-69
2023/03/16 04:38:52;;;;;;;27.17;14.15;;;;;;;-1.76;66.43;98931.84;4969338;28;20746;-70
2023/03/16 04:41:18;;;;;;;27.75;14.73;;;;;;;-1.76;66.47;98931.00;4968563;28;20061;-69
2023/03/16 04:43:44;;;;;;;27.85;14.13;;;;;;;-1.77;66.88;98935.56;4968850;28;20435;-70
2023/03/16 04:46:10;;;;;;;27.40;14.80;;;;;;;-1.77;66.70;98938.25;4969160;28;20082;-70
2023/03/16 04:48:36;;;;;;;31.38;15.40;;;;;;;-1.77;66.71;98938.25;4969625;28;20038;-69
2023/03/16 04:51:02;;;;;;;25.13;12.98;;;;;;;-1.78;66.67;98936.59;4968553;28;20097;-70
2023/03/16 04:53:30;;;;;;;28.90;14.38;;;;;;;-1.78;66.99;98941.13;4968714;28;20479;-70
2023/03/16 04:55:56;;;;;;;26.50;14.15;;;;;;;-1.80;66.20;98938.66;4968504;28;20053;-69
2023/03/16 04:58:21;;;;;;;29.52;14.63;;;;;;;-1.81;66.70;98945.88;4968613;28;20385;-70
2023/03/16 05:00:47;;;;;;;35.30;16.55;;;;;;;-1.81;66.76;98948.56;4968227;28;20937;-70
2023/03/16 05:03:14;;;;;;;37.03;19.20;;;;;;;-1.82;66.87;98946.91;4970062;28;20106;-70
2023/03/16 05:05:41;;;;;;;35.83;15.85;;;;;;;-1.81;66.73;98943.19;4968450;28;20065;-70
2023/03/16 05:08:06;;;;;;;29.95;15.05;;;;;;;-1.81;66.72;98950.44;4968759;28;20035;-70
2023/03/16 05:10:33;;;;;;;32.13;15.10;;;;;;;-1.82;66.67;98957.66;4968156;28;20030;-71
2023/03/16 05:12:59;;;;;;;27.45;14.18;;;;;;;-1.83;66.53;98955.19;4972286;28;20530;-70
2023/03/16 05:15:25;;;;;;;30.08;13.93;;;;;;;-1.83;66.95;98958.69;4967929;28;20146;-69
2023/03/16 05:17:50;;;;;;;27.15;14.10;;;;;;;-1.82;66.68;98964.91;4968671;28;20106;-70
2023/03/16 05:20:16;;;;;;;29.23;14.75;;;;;;;-1.83;66.57;98966.75;4967859;28;20034;-70
2023/03/16 05:22:44;;;;;;;30.40;15.35;;;;;;;-1.84;66.84;98975.88;4966444;28;20030;-70
2023/03/16 05:25:13;;;;;;;37.58;17.13;;;;;;;-1.84;66.94;98975.88;4968669;28;20038;-70
2023/03/16 05:27:40;;;;;;;32.33;16.67;;;;;;;-1.82;67.13;98981.84;4968258;28;20402;-70
2023/03/16 05:30:07;;;;;;;41.63;18.85;;;;;;;-1.80;66.86;98982.50;4968412;28;20034;-70
2023/03/16 05:32:33;;;;;;;35.92;17.25;;;;;;;-1.77;66.76;98981.28;4968248;28;20114;-70
2023/03/16 05:35:02;;;;;;;32.13;16.50;;;;;;;-1.76;67.25;98985.63;4967000;28;20110;-70
2023/03/16 05:37:27;;;;;;;29.65;15.18;;;;;;;-1.71;67.19;98988.53;4968295;28;20034;-70
2023/03/16 05:39:53;;;;;;;29.17;13.88;;;;;;;-1.68;66.97;98982.75;4968329;28;20043;-70
2023/03/16 05:42:18;;;;;;;26.52;12.88;;;;;;;-1.65;67.18;98989.56;4973416;28;20025;-70
2023/03/16 05:44:44;;;;;;;26.00;14.13;;;;;;;-1.60;67.26;98989.78;4967870;28;20054;-70
2023/03/16 05:47:10;;;;;;;28.88;15.02;;;;;;;-1.59;67.36;98996.81;4968422;28;20029;-71
2023/03/16 05:49:35;;;;;;;24.90;13.60;;;;;;;-1.54;67.38;98999.75;4968145;28;20046;-70
2023/03/16 05:52:01;;;;;;;27.98;14.00;;;;;;;-1.50;67.56;99002.84;4967981;28;20023;-70
2023/03/16 05:54:27;;;;;;;26.85;13.35;;;;;;;-1.45;68.05;99002.25;4968372;28;20023;-70
2023/03/16 05:56:53;;;;;;;22.50;11.88;;;;;;;-1.41;67.33;99008.84;4968202;28;20050;-70
2023/03/16 05:59:18;;;;;;;22.60;12.48;;;;;;;-1.37;67.75;99002.88;4967895;28;20097;-70
2023/03/16 06:01:44;;;;;;;21.25;11.77;;;;;;;-1.34;67.62;99004.31;4967904;28;20035;-70
2023/03/16 06:04:10;;;;;;;26.05;12.45;;;;;;;-1.29;68.08;99011.78;4968255;28;20034;-70
2023/03/16 06:06:35;;;;;;;23.50;12.25;;;;;;;-1.28;68.10;99010.75;4968129;28;20121;-70
2023/03/16 06:09:01;;;;;;;24.92;11.85;;;;;;;-1.25;68.00;99016.53;4968214;28;20030;-70
2023/03/16 06:11:27;;;;;;;28.65;13.57;;;;;;;-1.20;68.10;99015.91;4967949;28;20097;-70
2023/03/16 06:13:52;;;;;;;25.95;12.93;;;;;;;-1.17;69.14;99017.38;4968055;28;20033;-70
2023/03/16 06:16:18;;;;;;;25.30;13.70;;;;;;;-1.18;68.57;99024.59;4967632;28;20553;-70
2023/03/16 06:18:43;;;;;;;28.58;12.60;;;;;;;-1.15;68.64;99026.09;4968071;28;20567;-70
2023/03/16 06:21:08;;;;;;;24.17;12.23;;;;;;;-1.12;68.61;99037.25;4970124;28;20034;-70
2023/03/16 06:23:34;;;;;;;24.98;11.98;;;;;;;-1.05;69.08;99037.28;4973391;28;20039;-70
2023/03/16 06:26:00;;;;;;;21.67;11.45;;;;;;;-1.00;68.55;99044.72;4974632;28;20097;-70
2023/03/16 06:28:26;;;;;;;27.77;12.85;;;;;;;-0.96;68.76;99036.00;4972169;28;20429;-70
2023/03/16 06:30:55;;;;;;;22.38;12.35;;;;;;;-0.88;69.03;99040.38;4971627;28;20037;-70
2023/03/16 06:33:21;;;;;;;22.85;11.23;;;;;;;-0.83;69.09;99042.44;4971433;28;20037;-70
2023/03/16 06:35:50;;;;;;;20.35;11.15;;;;;;;-0.81;68.88;99037.69;4972205;28;20038;-70
2023/03/16 06:38:16;;;;;;;22.00;11.25;;;;;;;-0.82;68.74;99044.94;4971297;28;20057;-70
2023/03/16 06:40:42;;;;;;;26.70;12.27;;;;;;;-0.79;69.15;99051.78;4971943;28;20039;-71
2023/03/16 06:43:07;;;;;;;23.60;12.40;;;;;;;-0.80;69.34;99048.25;4979195;28;20065;-70
2023/03/16 06:45:33;;;;;;;23.45;11.38;;;;;;;-0.83;69.23;99047.84;4980854;28;20031;-69
2023/03/16 06:47:58;;;;;;;20.60;10.63;;;;;;;-0.81;69.23;99056.53;4974609;28;20117;-70
2023/03/16 06:50:24;;;;;;;20.80;11.27;;;;;;;-0.77;69.30;99055.09;4983837;28;20062;-70
2023/03/16 06:52:49;;;;;;;21.33;11.23;;;;;;;-0.75;69.42;99058.41;4973167;28;20420;-70
2023/03/16 06:55:14;;;;;;;20.02;11.10;;;;;;;-0.72;69.26;99062.53;4983418;28;20130;-70
2023/03/16 06:57:40;;;;;;;19.90;10.82;;;;;;;-0.67;69.38;99065.44;4971528;28;20120;-70
2023/03/16 07:00:09;;;;;;;23.10;10.80;;;;;;;-0.63;69.33;99067.53;4970115;28;20050;-70
2023/03/16 07:02:34;;;;;;;21.00;11.32;;;;;;;-0.56;69.47;99063.97;4974368;28;20733;-69
2023/03/16 07:05:00;;;;;;;17.77;10.93;;;;;;;-0.53;69.64;99072.50;4979465;28;20031;-70
2023/03/16 07:07:26;;;;;;;19.77;10.90;;;;;;;-0.50;69.43;99064.00;4970874;28;20038;-71
2023/03/16 07:09:51;;;;;;;21.65;11.07;;;;;;;-0.47;69.33;99068.13;4972328;28;20030;-71
2023/03/16 07:12:17;;;;;;;22.80;11.07;;;;;;;-0.44;69.42;99069.59;4971132;28;20019;-70
2023/03/16 07:14:43;;;;;;;21.08;11.68;;;;;;;-0.38;69.66;99079.50;4972189;28;20030;-70
2023/03/16 07:17:08;;;;;;;22.40;10.80;;;;;;;-0.34;69.56;99078.91;4971320;28;20027;-70
2023/03/16 07:19:34;;;;;;;24.17;11.65;;;;;;;-0.31;70.06;99078.47;4972015;28;20431;-71
2023/03/16 07:22:01;;;;;;;25.40;13.30;;;;;;;-0.24;69.79;99077.63;4971568;28;20030;-70
2023/03/16 07:24:27;;;;;;;23.88;10.88;;;;;;;-0.17;70.35;99067.66;4972092;28;20530;-70
2023/03/16 07:26:52;;;;;;;23.85;13.05;;;;;;;-0.11;70.10;99072.19;4971438;28;20500;-71
2023/03/16 07:29:18;;;;;;;30.75;14.25;;;;;;;-0.02;70.10;99080.91;4971014;28;20026;-71
2023/03/16 07:31:44;;;;;;;27.45;12.27;;;;;;;0.07;70.61;99084.19;4969480;28;20047;-71
2023/03/16 07:34:09;;;;;;;18.20;9.95;;;;;;;0.15;70.90;99083.97;4979428;28;20049;-70
2023/03/16 07:36:34;;;;;;;19.88;9.05;;;;;;;0.25;70.81;99088.91;4969827;28;20035;-70
2023/03/16 07:39:00;;;;;;;19.80;8.95;;;;;;;0.33;70.50;99087.84;4971636;28;20034;-70
2023/03/16 07:41:25;;;;;;;16.60;7.85;;;;;;;0.42;70.39;99090.06;4970818;28;20539;-70
2023/03/16 07:43:52;;;;;;;26.95;10.10;;;;;;;0.53;70.34;99093.16;4970879;28;20126;-70
2023/03/16 07:46:17;;;;;;;33.97;12.05;;;;;;;0.61;70.78;99084.00;4974785;28;20419;-71
2023/03/16 07:48:43;;;;;;;24.27;8.65;;;;;;;0.69;70.42;99087.25;4971096;28;20043;-70
2023/03/16 07:51:10;;;;;;;34.13;11.60;;;;;;;0.77;70.44;99083.47;4969706;28;20030;-70
2023/03/16 07:53:37;;;;;;;29.67;10.02;;;;;;;0.87;70.62;99085.69;4969603;28;20117;-71
2023/03/16 07:56:03;;;;;;;23.13;8.85;;;;;;;0.94;70.75;99085.66;4971459;28;20034;-71
2023/03/16 07:58:29;;;;;;;23.67;9.18;;;;;;;0.98;70.69;99090.41;4970954;28;20479;-71
2023/03/16 08:00:58;;;;;;;19.45;7.90;;;;;;;1.07;71.29;99085.56;4973258;28;20202;-71
2023/03/16 08:03:25;;;;;;;25.67;9.55;;;;;;;1.13;70.70;99089.28;4971210;28;20042;-71
2023/03/16 08:05:52;;;;;;;15.45;6.88;;;;;;;1.21;70.46;99097.13;4971822;28;20085;-71
2023/03/16 08:08:18;;;;;;;18.00;8.05;;;;;;;1.26;70.54;99099.97;4986015;28;20026;-72
2023/03/16 08:10:46;;;;;;;13.85;6.28;;;;;;;1.34;70.57;99097.00;4974153;28;20663;-70
2023/03/16 08:13:12;;;;;;;12.75;6.40;;;;;;;1.41;70.02;99099.66;4985534;28;20034;-72
2023/03/16 08:15:38;;;;;;;10.57;5.60;;;;;;;1.50;70.29;99102.91;4971138;28;20484;-72
2023/03/16 08:18:05;;;;;;;15.95;6.93;;;;;;;1.62;70.07;99098.44;4976293;28;20034;-72
2023/03/16 08:20:32;;;;;;;13.82;6.82;;;;;;;1.69;70.17;99094.84;4969941;28;20041;-70
2023/03/16 08:22:58;;;;;;;12.27;6.53;;;;;;;1.72;69.85;99106.06;4970992;28;20023;-70
2023/03/16 08:25:25;;;;;;;11.48;6.53;;;;;;;1.78;69.68;99098.91;4970459;28;20400;-71
2023/03/16 08:27:51;;;;;;;13.25;5.70;;;;;;;1.88;69.37;99090.28;4971028;28;20035;-70
2023/03/16 08:30:17;;;;;;;10.48;5.28;;;;;;;1.94;69.21;99086.69;4971131;28;20030;-71
2023/03/16 08:32:43;;;;;;;9.13;5.00;;;;;;;2.00;69.18;99088.50;4969420;28;20035;-71
2023/03/16 08:35:12;;;;;;;11.55;4.90;;;;;;;2.07;68.88;99096.53;4971593;28;20022;-70
2023/03/16 08:37:38;;;;;;;10.45;4.95;;;;;;;2.16;69.37;99099.78;4970633;28;20031;-72
2023/03/16 08:40:09;;;;;;;14.63;5.15;;;;;;;2.19;69.01;99099.34;4971701;28;20045;-71
2023/03/16 08:42:34;;;;;;;7.53;4.60;;;;;;;2.28;68.89;99092.56;4970126;28;20531;-71
2023/03/16 08:45:06;;;;;;;12.13;5.55;;;;;;;2.37;68.89;99096.63;4971130;28;20125;-71
2023/03/16 08:47:31;;;;;;;9.80;5.32;;;;;;;2.53;68.92;99097.06;4970626;28;20035;-72
2023/03/16 08:49:57;;;;;;;11.88;5.20;;;;;;;2.74;68.95;99105.75;4978807;28;20030;-71
2023/03/16 08:52:23;;;;;;;8.68;5.20;;;;;;;2.93;68.62;99103.81;4974188;28;20031;-71
2023/03/16 08:54:48;;;;;;;15.55;6.45;;;;;;;3.08;67.68;99125.06;4970607;28;20089;-71
2023/03/16 08:57:14;;;;;;;8.07;4.80;;;;;;;3.19;66.68;99121.56;4972565;28;20033;-71
2023/03/16 08:59:39;;;;;;;9.38;5.00;;;;;;;3.19;66.19;99118.88;4986811;28;20019;-69
2023/03/16 09:02:05;;;;;;;9.65;5.65;;;;;;;3.16;67.14;99118.50;4967714;28;20030;-71
2023/03/16 09:04:31;;;;;;;9.25;4.60;;;;;;;3.22;66.99;99117.59;4968560;28;20027;-71
2023/03/16 09:06:57;;;;;;;11.35;5.30;;;;;;;3.26;65.68;99122.31;4968402;28;20033;-70
2023/03/16 09:09:23;;;;;;;11.63;5.90;;;;;;;3.37;65.93;99120.69;4969419;28;20039;-71
2023/03/16 09:11:48;;;;;;;9.95;4.95;;;;;;;3.55;66.75;99116.25;4967993;28;20058;-70
2023/03/16 09:14:14;;;;;;;8.32;5.22;;;;;;;3.67;66.10;99125.19;4969881;28;20022;-73
2023/03/16 09:16:39;;;;;;;9.75;5.38;;;;;;;3.78;65.56;99125.44;4970640;28;20035;-71
2023/03/16 09:19:06;;;;;;;12.55;6.57;;;;;;;3.82;65.68;99122.03;4969673;28;20027;-70
2023/03/16 09:21:33;;;;;;;10.63;5.68;;;;;;;3.81;64.60;99131.25;4969396;28;20031;-73
2023/03/16 09:24:00;;;;;;;11.02;5.88;;;;;;;3.79;65.10;99137.94;4971050;28;20027;-71
2023/03/16 09:26:25;;;;;;;11.40;6.10;;;;;;;3.85;63.78;99137.03;4969514;28;20047;-72
2023/03/16 09:28:50;;;;;;;8.63;5.15;;;;;;;3.85;63.29;99127.00;4975824;28;20399;-74
2023/03/16 09:31:18;;;;;;;8.73;4.57;;;;;;;3.90;64.29;99125.44;4968790;28;20045;-71
2023/03/16 09:33:45;;;;;;;10.13;5.50;;;;;;;3.95;64.12;99128.28;4968842;28;20038;-71
2023/03/16 09:36:12;;;;;;;11.05;5.60;;;;;;;4.04;63.15;99134.19;4968317;28;20039;-73
2023/03/16 09:38:38;;;;;;;6.63;4.00;;;;;;;4.09;61.60;99132.41;4972079;28;20418;-71
2023/03/16 09:41:33;;;;;;;7.78;3.17;;;;;;;4.13;63.23;99121.91;4969298;28;20030;-72
2023/03/16 09:44:09;;;;;;;7.07;3.85;;;;;;;4.28;62.85;99129.59;4969456;28;20057;-71
2023/03/16 09:46:44;;;;;;;7.13;3.67;;;;;;;4.43;63.02;99126.38;4969601;28;20030;-72
2023/03/16 09:49:14;;;;;;;5.32;3.42;;;;;;;4.54;62.39;99127.41;4986027;28;20031;-73
2023/03/16 09:51:47;;;;;;;7.10;3.85;;;;;;;4.58;61.39;99132.09;4969691;28;20019;-70
2023/03/16 09:54:31;;;;;;;8.85;2.97;;;;;;;4.62;61.04;99129.75;4971108;28;20046;-73
2023/03/16 09:56:56;;;;;;;8.38;3.22;;;;;;;4.69;59.27;99132.31;4987125;28;20041;-72
2023/03/16 09:59:24;;;;;;;5.75;3.00;;;;;;;4.72;60.21;99126.41;4978278;28;20027;-71
2023/03/16 10:02:13;;;;;;;8.52;4.00;;;;;;;4.72;60.28;99118.25;4973182;28;20030;-72
2023/03/16 10:04:57;;;;;;;9.98;5.55;;;;;;;4.77;59.70;99135.47;4972584;28;20031;-73
2023/03/16 10:07:51;;;;;;;11.10;3.88;;;;;;;4.83;60.56;99136.41;4972097;28;20030;-72
2023/03/16 10:10:25;;;;;;;8.35;3.88;;;;;;;4.88;60.03;99133.78;4971011;28;20042;-71
2023/03/16 10:12:56;;;;;;;6.50;2.58;;;;;;;4.97;59.43;99134.22;4981816;28;20031;-71
2023/03/16 10:15:26;;;;;;;6.00;2.10;;;;;;;5.09;58.63;99136.06;4972509;28;20089;-73
2023/03/16 10:17:58;;;;;;;5.55;2.80;;;;;;;5.15;58.60;99130.47;4972776;28;20073;-73
2023/03/16 10:20:27;;;;;;;7.95;3.95;;;;;;;5.25;58.85;99135.28;4970537;28;20033;-74
2023/03/16 10:22:54;;;;;;;8.13;3.75;;;;;;;5.41;58.70;99143.72;4970991;28;20561;-73
2023/03/16 10:25:30;;;;;;;9.25;3.40;;;;;;;5.50;58.18;99134.91;4970871;28;20081;-74
2023/03/16 10:27:56;;;;;;;7.70;2.60;;;;;;;5.51;56.00;99139.28;4974429;28;20046;-73
2023/03/16 10:30:31;;;;;;;7.70;2.22;;;;;;;5.48;56.93;99137.03;4971476;28;20029;-73
2023/03/16 10:33:12;;;;;;;19.00;4.85;;;;;;;5.48;55.77;99145.19;4972065;28;20047;-73
2023/03/16 10:35:45;;;;;;;10.48;3.50;;;;;;;5.45;55.93;99142.97;4972732;28;20061;-72
2023/03/16 10:38:47;;;;;;;11.65;2.92;;;;;;;5.52;56.99;99145.53;4972916;28;20031;-72
2023/03/16 10:41:21;;;;;;;5.65;2.17;;;;;;;5.66;56.78;99135.97;4972527;28;21588;-71
2023/03/16 10:43:51;;;;;;;6.13;2.00;;;;;;;5.76;56.60;99129.88;4972279;28;20054;-72
2023/03/16 10:46:17;;;;;;;7.78;2.65;;;;;;;5.78;55.37;99135.06;4972403;28;20095;-72
2023/03/16 10:48:52;;;;;;;5.82;2.25;;;;;;;5.77;55.49;99139.69;4971926;28;20161;-72
2023/03/16 10:51:24;;;;;;;5.80;2.60;;;;;;;5.79;55.96;99136.72;4982235;28;20393;-72
2023/03/16 10:53:50;;;;;;;7.60;2.53;;;;;;;5.75;53.34;99141.00;4981764;28;20102;-78
2023/03/16 10:56:22;;;;;;;6.47;2.22;;;;;;;5.64;54.11;99140.84;4975261;28;20076;-70
2023/03/16 10:58:48;;;;;;;7.20;2.65;;;;;;;5.65;54.42;99138.97;4972643;28;20030;-73
2023/03/16 11:01:20;;;;;;;5.50;1.65;;;;;;;5.72;53.79;99146.94;4972579;28;20057;-72
2023/03/16 11:03:52;;;;;;;3.45;1.80;;;;;;;5.76;54.28;99139.94;4970899;28;20660;-78
2023/03/16 11:06:29;;;;;;;7.15;2.65;;;;;;;5.82;52.82;99141.69;4976196;28;20027;-74
2023/03/16 11:09:02;;;;;;;9.02;2.80;;;;;;;5.80;52.84;99150.06;4972746;28;20039;-74
2023/03/16 11:11:32;;;;;;;7.30;2.78;;;;;;;5.88;54.33;99142.56;4971722;28;20038;-74
2023/03/16 11:14:00;;;;;;;7.25;2.67;;;;;;;6.01;54.37;99141.44;4983293;28;20475;-74
2023/03/16 11:16:47;;;;;;;7.80;2.88;;;;;;;6.11;53.84;99144.31;4978018;28;20034;-74
2023/03/16 11:19:44;;;;;;;10.98;3.65;;;;;;;6.18;53.73;99149.56;4975879;28;20134;-75
2023/03/16 11:22:15;;;;;;;8.52;3.17;;;;;;;6.19;53.55;99134.88;4971437;28;20660;-75
2023/03/16 11:25:01;;;;;;;5.70;2.10;;;;;;;6.18;52.22;99139.53;4977125;28;20038;-72
2023/03/16 11:27:33;;;;;;;9.02;3.22;;;;;;;6.16;52.96;99132.66;4970474;28;20051;-72